Time;durP1;ratioP1;P1;durP2;ratioP2;P2;SDS_P1;SDS_P2;PMS_P1;PMS_P2;Temp;Humidity;BMP_temperature;BMP_pressure;BME280_temperature;BME280_humidity;BME280_pressure;Samples;Min_cycle;Max_cycle;Signal;HPM_P1;HPM_P2
2021/06/03 00:00:19;;;;;;;16.65;4.10;;;;;;;;;;4953911;28;20027;-85
2021/06/03 00:02:45;;;;;;;;;;;;;;;;;;4953061;28;20092;-86
2021/06/03 00:05:13;;;;;;;14.57;4.43;;;;;;;;;;4958072;28;19914;-86
2021/06/03 00:07:41;;;;;;;14.45;3.80;;;;;;;;;;4956924;28;20159;-86
2021/06/03 00:10:10;;;;;;;15.48;4.38;;;;;;;;;;4956311;28;20043;-86
2021/06/03 00:12:38;;;;;;;16.25;4.43;;;;;;;;;;4957977;28;20042;-87
2021/06/03 00:15:11;;;;;;;14.82;3.97;;;;;;;;;;4917718;28;20638;-87
2021/06/03 00:17:37;;;;;;;13.07;3.83;;;;;;;;;;4903598;29;20066;-86
2021/06/03 00:20:07;;;;;;;17.95;4.50;;;;;;;;;;4919735;29;20144;-87
2021/06/03 00:22:35;;;;;;;12.88;4.18;;;;;;;;;;4900805;29;20071;-87
2021/06/03 00:25:04;;;;;;;15.25;4.00;;;;;;;;;;4921198;29;20024;-86
2021/06/03 00:27:33;;;;;;;18.60;4.13;;;;;;;;;;4903762;29;20035;-87
2021/06/03 00:30:05;;;;;;;15.02;4.05;;;;;;;;;;4903723;29;20044;-88
2021/06/03 00:32:32;;;;;;;13.90;3.97;;;;;;;;;;4905133;29;20039;-87
2021/06/03 00:34:59;;;;;;;12.23;3.58;;;;;;;;;;4899989;29;20126;-86
2021/06/03 00:37:29;;;;;;;14.50;4.43;;;;;;;;;;4914229;29;20600;-87
2021/06/03 00:39:57;;;;;;;17.15;4.03;;;;;;;;;;4889034;29;20056;-87
2021/06/03 00:42:28;;;;;;;15.60;4.43;;;;;;;;;;4847737;29;20054;-86
2021/06/03 00:44:59;;;;;;;17.45;4.10;;;;;;;;;;4844591;29;20556;-86
2021/06/03 00:47:26;;;;;;;15.05;4.00;;;;;;;;;;4849949;29;20037;-87
2021/06/03 00:49:54;;;;;;;12.73;3.90;;;;;;;;;;4838478;29;20045;-86
2021/06/03 00:52:22;;;;;;;14.63;4.00;;;;;;;;;;4816744;29;20071;-86
2021/06/03 00:54:53;;;;;;;16.25;4.15;;;;;;;;;;4824701;29;20109;-86
2021/06/03 00:57:21;;;;;;;13.32;3.70;;;;;;;;;;4808073;29;20058;-86
2021/06/03 00:59:50;;;;;;;13.10;3.53;;;;;;;;;;4855851;29;20048;-86
2021/06/03 01:02:17;;;;;;;15.10;3.45;;;;;;;;;;4863946;29;20033;-86
2021/06/03 01:04:44;;;;;;;12.23;3.28;;;;;;;;;;4848741;29;20190;-86
2021/06/03 01:07:14;;;;;;;12.60;3.50;;;;;;;;;;4875249;29;20040;-86
2021/06/03 01:09:49;;;;;;;13.82;3.63;;;;;;;;;;4871520;29;20033;-86
2021/06/03 01:12:30;;;;;;;12.75;3.50;;;;;;;;;;4888448;29;20756;-84
2021/06/03 01:14:59;;;;;;;12.07;3.83;;;;;;;;;;4881329;29;20088;-85
2021/06/03 01:17:27;;;;;;;16.17;4.28;;;;;;;;;;4891285;29;20044;-85
2021/06/03 01:19:57;;;;;;;16.20;4.32;;;;;;;;;;4863812;29;20500;-87
2021/06/03 01:22:37;;;;;;;12.95;3.88;;;;;;;;;;4867952;29;21443;-84
2021/06/03 01:25:17;;;;;;;16.20;4.07;;;;;;;;;;4886628;29;21049;-85
2021/06/03 01:27:46;;;;;;;14.13;3.92;;;;;;;;;;4899460;29;20095;-86
2021/06/03 01:30:30;;;;;;;13.18;3.85;;;;;;;;;;4903482;29;20024;-87
2021/06/03 01:32:58;;;;;;;17.25;4.28;;;;;;;;;;4907726;28;20046;-87
2021/06/03 01:35:29;;;;;;;14.30;3.63;;;;;;;;;;4936132;28;20132;-85
2021/06/03 01:37:58;;;;;;;15.25;4.03;;;;;;;;;;4936479;28;20055;-85
2021/06/03 01:40:29;;;;;;;15.25;3.75;;;;;;;;;;4948507;28;20071;-86
2021/06/03 01:42:57;;;;;;;12.40;3.70;;;;;;;;;;4935598;28;20042;-87
2021/06/03 01:45:27;;;;;;;11.02;3.25;;;;;;;;;;4934730;28;20078;-87
2021/06/03 01:47:57;;;;;;;14.52;3.72;;;;;;;;;;4937220;28;20476;-86
2021/06/03 01:50:24;;;;;;;14.07;3.83;;;;;;;;;;4949985;28;20035;-86
2021/06/03 01:52:52;;;;;;;15.00;3.63;;;;;;;;;;4932733;28;20400;-87
2021/06/03 01:55:20;;;;;;;16.77;4.20;;;;;;;;;;4942412;28;20439;-86
2021/06/03 01:57:47;;;;;;;14.60;4.10;;;;;;;;;;4949952;28;20391;-85
2021/06/03 02:00:16;;;;;;;13.35;3.58;;;;;;;;;;4937539;28;20031;-87
2021/06/03 02:02:42;;;;;;;13.40;3.97;;;;;;;;;;4941449;28;20050;-87
2021/06/03 02:05:11;;;;;;;14.18;4.15;;;;;;;;;;4934246;28;20079;-85
2021/06/03 02:07:37;;;;;;;15.23;3.92;;;;;;;;;;4940420;28;20043;-86
2021/06/03 02:10:06;;;;;;;14.43;4.07;;;;;;;;;;4951339;28;20083;-86
2021/06/03 02:12:36;;;;;;;15.02;4.05;;;;;;;;;;4943909;28;20138;-85
2021/06/03 02:15:07;;;;;;;14.63;3.60;;;;;;;;;;4927870;28;20537;-85
2021/06/03 02:17:41;;;;;;;14.43;4.20;;;;;;;;;;4942983;28;20023;-85
2021/06/03 02:20:12;;;;;;;13.60;3.78;;;;;;;;;;4936100;28;20138;-85
2021/06/03 02:22:47;;;;;;;14.77;3.95;;;;;;;;;;4934629;28;20050;-84
2021/06/03 02:25:14;;;;;;;14.68;4.03;;;;;;;;;;4931092;28;20113;-84
2021/06/03 02:27:45;;;;;;;14.13;4.22;;;;;;;;;;4921879;28;20139;-84
2021/06/03 02:30:15;;;;;;;13.50;3.60;;;;;;;;;;4920221;28;20022;-84
2021/06/03 02:32:44;;;;;;;15.00;4.18;;;;;;;;;;4922610;28;20036;-86
2021/06/03 02:35:12;;;;;;;13.35;4.05;;;;;;;;;;4934504;28;20031;-84
2021/06/03 02:37:41;;;;;;;14.07;3.90;;;;;;;;;;4919332;28;20043;-86
2021/06/03 02:40:16;;;;;;;13.07;3.88;;;;;;;;;;4936327;28;20039;-87
2021/06/03 02:42:44;;;;;;;13.27;3.47;;;;;;;;;;4923251;28;20041;-85
2021/06/03 02:45:14;;;;;;;16.80;4.22;;;;;;;;;;4939213;28;20248;-85
2021/06/03 02:47:55;;;;;;;12.60;3.47;;;;;;;;;;4933335;28;20031;-84
2021/06/03 02:50:24;;;;;;;11.48;3.53;;;;;;;;;;4939775;28;20107;-85
2021/06/03 02:52:52;;;;;;;13.82;3.90;;;;;;;;;;4931892;28;20780;-85
2021/06/03 02:55:24;;;;;;;13.40;3.95;;;;;;;;;;4916545;28;20059;-84
2021/06/03 02:57:52;;;;;;;12.95;3.75;;;;;;;;;;4937545;28;20078;-85
2021/06/03 03:00:25;;;;;;;14.25;3.63;;;;;;;;;;4936974;28;20594;-86
2021/06/03 03:02:53;;;;;;;15.70;3.85;;;;;;;;;;4937993;28;20031;-86
2021/06/03 03:05:20;;;;;;;15.15;4.05;;;;;;;;;;4915432;28;20039;-86
2021/06/03 03:07:49;;;;;;;13.85;3.83;;;;;;;;;;4946932;28;20023;-85
2021/06/03 03:10:19;;;;;;;13.18;3.47;;;;;;;;;;4938724;28;20027;-86
2021/06/03 03:12:47;;;;;;;13.63;3.70;;;;;;;;;;4906818;28;20114;-86
2021/06/03 03:15:16;;;;;;;15.82;4.40;;;;;;;;;;4936805;28;20058;-87
2021/06/03 03:17:44;;;;;;;13.25;3.92;;;;;;;;;;4939159;28;20150;-85
2021/06/03 03:20:14;;;;;;;11.57;3.65;;;;;;;;;;4947913;28;20026;-87
2021/06/03 03:22:42;;;;;;;15.88;3.95;;;;;;;;;;4940501;28;20057;-86
2021/06/03 03:25:14;;;;;;;14.88;4.30;;;;;;;;;;4941893;28;20074;-85
2021/06/03 03:27:48;;;;;;;15.60;3.80;;;;;;;;;;4951879;28;20554;-86
2021/06/03 03:30:20;;;;;;;14.55;3.70;;;;;;;;;;4935584;28;20204;-87
2021/06/03 03:32:46;;;;;;;12.00;3.33;;;;;;;;;;4951104;28;20126;-85
2021/06/03 03:35:18;;;;;;;13.43;3.50;;;;;;;;;;4938765;28;20139;-84
2021/06/03 03:37:46;;;;;;;13.63;3.80;;;;;;;;;;4936440;28;20039;-84
2021/06/03 03:40:27;;;;;;;12.13;3.60;;;;;;;;;;4949097;28;20754;-86
2021/06/03 03:42:53;;;;;;;13.80;3.35;;;;;;;;;;4936158;28;20055;-86
2021/06/03 03:45:22;;;;;;;13.20;3.83;;;;;;;;;;4955061;28;20070;-86
2021/06/03 03:47:51;;;;;;;15.00;3.75;;;;;;;;;;4949724;28;20062;-85
2021/06/03 03:50:42;;;;;;;13.82;3.92;;;;;;;;;;4938988;28;20046;-85
2021/06/03 03:53:11;;;;;;;13.18;3.85;;;;;;;;;;4932177;28;20488;-85
2021/06/03 03:55:40;;;;;;;11.05;3.58;;;;;;;;;;4953325;28;20030;-84
2021/06/03 03:58:09;;;;;;;13.23;3.65;;;;;;;;;;4946201;28;20053;-87
2021/06/03 04:00:35;;;;;;;12.93;3.40;;;;;;;;;;4940972;28;20050;-85
2021/06/03 04:03:06;;;;;;;12.95;3.38;;;;;;;;;;4951711;28;20039;-84
2021/06/03 04:05:33;;;;;;;12.13;3.50;;;;;;;;;;4937427;28;20042;-85
2021/06/03 04:08:01;;;;;;;14.73;3.55;;;;;;;;;;4954296;28;20042;-86
2021/06/03 04:10:30;;;;;;;11.27;3.40;;;;;;;;;;4936929;28;20142;-86
2021/06/03 04:12:58;;;;;;;12.50;3.95;;;;;;;;;;4941984;28;20038;-84
2021/06/03 04:15:27;;;;;;;13.65;3.92;;;;;;;;;;4951794;28;20035;-84
2021/06/03 04:17:54;;;;;;;12.63;3.50;;;;;;;;;;4952727;28;20039;-85
2021/06/03 04:20:21;;;;;;;12.68;3.42;;;;;;;;;;4935024;28;20039;-85
2021/06/03 04:22:49;;;;;;;12.50;3.40;;;;;;;;;;4961349;28;20098;-86
2021/06/03 04:25:18;;;;;;;13.15;3.72;;;;;;;;;;4960615;28;20037;-86
2021/06/03 04:27:46;;;;;;;12.63;3.20;;;;;;;;;;4942060;28;20052;-86
2021/06/03 04:30:17;;;;;;;14.80;4.20;;;;;;;;;;4938123;28;20042;-87
2021/06/03 04:32:46;;;;;;;15.73;3.67;;;;;;;;;;4944222;28;20525;-85
2021/06/03 04:35:17;;;;;;;14.32;3.67;;;;;;;;;;4944173;28;20130;-87
2021/06/03 04:37:49;;;;;;;10.82;3.55;;;;;;;;;;4952998;28;20038;-83
2021/06/03 04:40:16;;;;;;;11.98;3.58;;;;;;;;;;4954931;28;20043;-84
2021/06/03 04:42:47;;;;;;;11.82;3.70;;;;;;;;;;4947481;28;20118;-84
2021/06/03 04:45:34;;;;;;;13.50;3.95;;;;;;;;;;4938707;28;20778;-85
2021/06/03 04:48:02;;;;;;;11.63;3.47;;;;;;;;;;4953469;28;20030;-84
2021/06/03 04:50:29;;;;;;;14.00;3.40;;;;;;;;;;4937705;28;20066;-84
2021/06/03 04:52:56;;;;;;;14.55;4.03;;;;;;;;;;4934938;28;20031;-82
2021/06/03 04:55:25;;;;;;;13.38;3.42;;;;;;;;;;4936631;28;20942;-85
2021/06/03 04:57:55;;;;;;;15.20;3.95;;;;;;;;;;4935098;28;20070;-84
2021/06/03 05:00:30;;;;;;;19.75;4.40;;;;;;;;;;4938807;28;20114;-84
2021/06/03 05:03:00;;;;;;;13.63;3.72;;;;;;;;;;4945622;28;20053;-85
2021/06/03 05:05:33;;;;;;;16.08;3.90;;;;;;;;;;4953376;28;20062;-85
2021/06/03 05:07:59;;;;;;;15.15;3.88;;;;;;;;;;4940214;28;20043;-85
2021/06/03 05:10:28;;;;;;;11.15;3.25;;;;;;;;;;4943901;28;20483;-85
2021/06/03 05:12:58;;;;;;;14.60;3.30;;;;;;;;;;4937712;28;20059;-86
2021/06/03 05:15:29;;;;;;;16.25;3.60;;;;;;;;;;4952964;28;20480;-85
2021/06/03 05:17:59;;;;;;;11.00;3.28;;;;;;;;;;4932173;28;20038;-85
2021/06/03 05:20:31;;;;;;;15.02;3.25;;;;;;;;;;4939886;28;20057;-85
2021/06/03 05:23:00;;;;;;;13.95;3.40;;;;;;;;;;4937543;28;20035;-84
2021/06/03 05:25:30;;;;;;;16.05;3.58;;;;;;;;;;4957763;28;20040;-85
2021/06/03 05:27:58;;;;;;;12.07;3.10;;;;;;;;;;4951038;28;20039;-85
2021/06/03 05:30:25;;;;;;;11.63;3.17;;;;;;;;;;4955935;28;20035;-84
2021/06/03 05:32:57;;;;;;;11.73;3.75;;;;;;;;;;4941919;28;20059;-85
2021/06/03 05:35:28;;;;;;;13.80;3.67;;;;;;;;;;4938525;28;20058;-85
2021/06/03 05:37:55;;;;;;;12.20;3.95;;;;;;;;;;4939212;28;20122;-85
2021/06/03 05:40:27;;;;;;;13.40;3.60;;;;;;;;;;4955291;28;20082;-87
2021/06/03 05:42:54;;;;;;;12.60;3.78;;;;;;;;;;4938595;28;20093;-85
2021/06/03 05:45:21;;;;;;;11.35;3.58;;;;;;;;;;4943400;28;20032;-85
2021/06/03 05:47:49;;;;;;;14.63;3.90;;;;;;;;;;4953319;28;20043;-85
2021/06/03 05:50:18;;;;;;;13.48;3.45;;;;;;;;;;4939764;28;20047;-80
2021/06/03 05:52:46;;;;;;;13.07;4.10;;;;;;;;;;4939476;28;20246;-80
2021/06/03 05:55:19;;;;;;;17.83;5.03;;;;;;;;;;4944571;28;20039;-80
2021/06/03 05:58:11;;;;;;;14.75;3.60;;;;;;;;;;4938667;28;20440;-80
2021/06/03 06:00:39;;;;;;;14.38;4.20;;;;;;;;;;4941944;28;20653;-80
2021/06/03 06:03:14;;;;;;;14.73;4.45;;;;;;;;;;4924396;28;20934;-79
2021/06/03 06:08:30;;;;;;;14.77;4.18;;;;;;;;;;4933348;28;20090;-80
2021/06/03 06:10:58;;;;;;;12.80;3.70;;;;;;;;;;4944394;28;20113;-80
2021/06/03 06:13:30;;;;;;;16.10;3.83;;;;;;;;;;4946391;28;20519;-81
2021/06/03 06:16:01;;;;;;;17.83;4.45;;;;;;;;;;4911282;28;20129;-81
2021/06/03 06:18:31;;;;;;;14.10;4.25;;;;;;;;;;4948707;28;20039;-80
2021/06/03 06:21:00;;;;;;;14.63;4.40;;;;;;;;;;4949431;28;20324;-78
2021/06/03 06:23:28;;;;;;;15.52;4.32;;;;;;;;;;4936963;28;20023;-82
2021/06/03 06:25:56;;;;;;;15.30;4.35;;;;;;;;;;4926999;28;20846;-80
2021/06/03 06:28:27;;;;;;;15.98;4.45;;;;;;;;;;4929876;28;20466;-82
2021/06/03 06:31:18;;;;;;;14.18;5.13;;;;;;;;;;4943390;28;20030;-83
2021/06/03 06:34:09;;;;;;;15.82;4.80;;;;;;;;;;4932129;28;20758;-81
2021/06/03 06:36:38;;;;;;;18.23;9.68;;;;;;;;;;4945657;28;20041;-83
2021/06/03 06:39:07;;;;;;;14.07;4.95;;;;;;;;;;4947033;28;20064;-81
2021/06/03 06:41:34;;;;;;;13.70;4.00;;;;;;;;;;4943697;28;20027;-81
2021/06/03 06:44:01;;;;;;;14.68;4.32;;;;;;;;;;4939097;28;20183;-80
2021/06/03 06:46:30;;;;;;;15.80;3.80;;;;;;;;;;4932730;28;20027;-81
2021/06/03 06:48:59;;;;;;;16.17;4.68;;;;;;;;;;4941869;28;20023;-81
2021/06/03 06:51:36;;;;;;;17.35;5.65;;;;;;;;;;4914176;29;20660;-82
2021/06/03 06:54:05;;;;;;;17.08;5.95;;;;;;;;;;4905414;29;20042;-81
2021/06/03 06:56:33;;;;;;;14.43;6.22;;;;;;;;;;4903328;29;20124;-81
2021/06/03 06:59:01;;;;;;;14.90;6.40;;;;;;;;;;4885899;29;20062;-81
2021/06/03 07:01:27;;;;;;;16.08;5.65;;;;;;;;;;4907500;29;20466;-81
2021/06/03 07:04:20;;;;;;;16.10;6.03;;;;;;;;;;4894703;29;20040;-80
2021/06/03 07:06:51;;;;;;;14.85;6.53;;;;;;;;;;4900052;29;20324;-81
2021/06/03 07:09:17;;;;;;;14.65;5.55;;;;;;;;;;4877423;29;20089;-81
2021/06/03 07:11:46;;;;;;;17.67;5.40;;;;;;;;;;4905562;29;20039;-81
2021/06/03 07:14:13;;;;;;;14.25;5.10;;;;;;;;;;4905547;29;20027;-81
2021/06/03 07:16:42;;;;;;;15.90;4.88;;;;;;;;;;4879537;29;20591;-80
2021/06/03 07:19:11;;;;;;;15.38;4.40;;;;;;;;;;4873590;29;20046;-79
2021/06/03 07:21:39;;;;;;;15.52;4.10;;;;;;;;;;4910460;29;20028;-79
2021/06/03 07:24:08;;;;;;;14.85;4.45;;;;;;;;;;4886175;29;20045;-80
2021/06/03 07:26:36;;;;;;;14.27;4.03;;;;;;;;;;4895153;29;20031;-81
2021/06/03 07:29:05;;;;;;;12.57;4.20;;;;;;;;;;4891347;29;20111;-81
2021/06/03 07:31:34;;;;;;;14.38;4.00;;;;;;;;;;4904723;29;20439;-80
2021/06/03 07:34:05;;;;;;;18.08;4.25;;;;;;;;;;4890562;29;20043;-80
2021/06/03 07:36:31;;;;;;;13.02;4.38;;;;;;;;;;4907104;29;20115;-80
2021/06/03 07:39:01;;;;;;;12.98;4.30;;;;;;;;;;4903119;29;20077;-80
2021/06/03 07:41:29;;;;;;;12.88;3.88;;;;;;;;;;4903484;28;20205;-80
2021/06/03 07:44:07;;;;;;;13.68;3.90;;;;;;;;;;4912516;28;20072;-79
2021/06/03 07:46:36;;;;;;;21.08;4.88;;;;;;;;;;4909536;29;20059;-79
2021/06/03 07:49:05;;;;;;;14.45;3.88;;;;;;;;;;4907977;29;20292;-81
2021/06/03 07:51:35;;;;;;;13.88;4.15;;;;;;;;;;4908862;29;20075;-80
2021/06/03 07:54:05;;;;;;;14.07;4.03;;;;;;;;;;4907776;29;20050;-79
2021/06/03 07:56:33;;;;;;;12.18;4.22;;;;;;;;;;4896406;29;20046;-81
2021/06/03 07:59:01;;;;;;;14.25;3.70;;;;;;;;;;4906995;29;20038;-81
2021/06/03 08:01:27;;;;;;;16.05;4.00;;;;;;;;;;4895074;29;20775;-81
2021/06/03 08:03:56;;;;;;;14.02;3.88;;;;;;;;;;4907086;29;20296;-81
2021/06/03 08:06:25;;;;;;;13.32;3.60;;;;;;;;;;4899525;29;20500;-81
2021/06/03 08:08:54;;;;;;;18.20;3.90;;;;;;;;;;4908465;29;20062;-81
2021/06/03 08:11:45;;;;;;;13.88;4.05;;;;;;;;;;4899498;29;20035;-81
2021/06/03 08:14:14;;;;;;;15.15;3.97;;;;;;;;;;4893579;29;20028;-79
2021/06/03 08:16:42;;;;;;;14.32;3.80;;;;;;;;;;4908656;29;20036;-80
2021/06/03 08:19:11;;;;;;;15.45;3.72;;;;;;;;;;4905159;29;20535;-80
2021/06/03 08:21:41;;;;;;;14.80;3.80;;;;;;;;;;4907772;29;20053;-79
2021/06/03 08:24:09;;;;;;;14.45;4.25;;;;;;;;;;4901705;29;20066;-80
2021/06/03 08:26:38;;;;;;;13.98;3.95;;;;;;;;;;4909796;29;20040;-82
2021/06/03 08:29:06;;;;;;;14.93;4.05;;;;;;;;;;4905932;29;20083;-81
2021/06/03 08:31:35;;;;;;;12.93;4.00;;;;;;;;;;4909838;28;20120;-80
2021/06/03 08:34:06;;;;;;;14.73;4.22;;;;;;;;;;4909682;29;20063;-81
2021/06/03 08:36:35;;;;;;;16.42;4.25;;;;;;;;;;4918762;28;20050;-80
2021/06/03 08:42:02;;;;;;;14.88;3.55;;;;;;;;;;4946206;28;20041;-81
2021/06/03 08:44:31;;;;;;;14.65;3.78;;;;;;;;;;4943648;28;20173;-81
2021/06/03 08:46:57;;;;;;;12.40;3.60;;;;;;;;;;4926408;28;20052;-82
2021/06/03 08:49:24;;;;;;;13.50;3.72;;;;;;;;;;4924058;28;20036;-81
2021/06/03 08:51:54;;;;;;;12.57;3.83;;;;;;;;;;4927746;28;20115;-81
2021/06/03 08:54:22;;;;;;;13.65;3.60;;;;;;;;;;4941222;28;20141;-81
2021/06/03 08:56:51;;;;;;;17.70;4.40;;;;;;;;;;4923425;28;20050;-81
2021/06/03 08:59:19;;;;;;;14.77;4.22;;;;;;;;;;4932538;28;20036;-81
2021/06/03 09:01:47;;;;;;;13.43;3.83;;;;;;;;;;4923627;28;20761;-81
2021/06/03 09:04:13;;;;;;;13.77;3.75;;;;;;;;;;4936179;28;20391;-81
2021/06/03 09:06:41;;;;;;;14.38;3.95;;;;;;;;;;4946536;28;20046;-81
2021/06/03 09:09:12;;;;;;;14.10;4.03;;;;;;;;;;4946014;28;20152;-83
2021/06/03 09:11:40;;;;;;;13.15;3.70;;;;;;;;;;4935092;28;20035;-81
2021/06/03 09:14:16;;;;;;;14.23;4.50;;;;;;;;;;4929591;28;20090;-81
2021/06/03 09:16:53;;;;;;;15.83;4.10;;;;;;;;;;4921565;28;20431;-81
2021/06/03 09:19:25;;;;;;;12.15;3.50;;;;;;;;;;4912147;28;20039;-81
2021/06/03 09:21:58;;;;;;;15.25;3.88;;;;;;;;;;4934879;28;20099;-80
2021/06/03 09:24:32;;;;;;;13.15;3.50;;;;;;;;;;4932632;28;20089;-82
2021/06/03 09:27:02;;;;;;;11.63;3.20;;;;;;;;;;4930055;28;20092;-82
2021/06/03 09:29:32;;;;;;;15.85;4.18;;;;;;;;;;4933398;28;20043;-81
2021/06/03 09:32:10;;;;;;;13.73;3.38;;;;;;;;;;4927102;28;20027;-81
2021/06/03 09:34:42;;;;;;;13.15;4.38;;;;;;;;;;4949864;28;20613;-82
2021/06/03 09:37:10;;;;;;;15.15;4.00;;;;;;;;;;4928987;28;20047;-81
2021/06/03 09:39:44;;;;;;;11.63;3.78;;;;;;;;;;4929550;28;20027;-81
2021/06/03 09:42:21;;;;;;;12.40;4.03;;;;;;;;;;4932165;28;20039;-81
2021/06/03 09:44:50;;;;;;;13.50;3.58;;;;;;;;;;4943110;28;20035;-82
2021/06/03 09:47:43;;;;;;;14.23;4.50;;;;;;;;;;4935612;28;20023;-82
2021/06/03 09:50:35;;;;;;;16.95;3.83;;;;;;;;;;4940217;28;20062;-82
2021/06/03 09:53:28;;;;;;;14.45;4.07;;;;;;;;;;4934082;28;20039;-82
2021/06/03 09:56:16;;;;;;;13.95;4.35;;;;;;;;;;4919293;28;20066;-82
2021/06/03 09:58:45;;;;;;;12.40;3.88;;;;;;;;;;4924671;28;20039;-81
2021/06/03 10:01:12;;;;;;;18.05;4.53;;;;;;;;;;4948817;28;20761;-81
2021/06/03 10:03:57;;;;;;;13.90;4.03;;;;;;;;;;4944408;28;20046;-81
2021/06/03 10:06:24;;;;;;;15.27;4.15;;;;;;;;;;4930416;28;20027;-81
2021/06/03 10:08:52;;;;;;;12.38;3.85;;;;;;;;;;4925173;28;20043;-81
2021/06/03 10:11:39;;;;;;;14.10;3.85;;;;;;;;;;4924546;28;20117;-82
2021/06/03 10:14:14;;;;;;;11.38;3.35;;;;;;;;;;4932079;28;20683;-83
2021/06/03 10:16:48;;;;;;;15.13;4.07;;;;;;;;;;4932382;28;20122;-80
2021/06/03 10:19:24;;;;;;;13.52;4.10;;;;;;;;;;4946925;28;20031;-81
2021/06/03 10:22:09;;;;;;;15.20;3.85;;;;;;;;;;4926730;28;20031;-81
2021/06/03 10:25:01;;;;;;;14.80;4.40;;;;;;;;;;4932998;28;20031;-81
2021/06/03 10:27:53;;;;;;;13.50;4.07;;;;;;;;;;4936105;28;20050;-82
2021/06/03 10:30:58;;;;;;;15.93;4.53;;;;;;;;;;4936063;28;20390;-81
2021/06/03 10:33:27;;;;;;;14.50;4.40;;;;;;;;;;4905699;28;20953;-78
2021/06/03 10:35:57;;;;;;;13.10;3.97;;;;;;;;;;4892985;29;20406;-80
2021/06/03 10:38:28;;;;;;;15.35;4.22;;;;;;;;;;4904709;28;20096;-81
2021/06/03 10:40:59;;;;;;;14.48;3.70;;;;;;;;;;4887509;29;20043;-80
2021/06/03 10:43:31;;;;;;;14.88;4.20;;;;;;;;;;4912224;28;20031;-81
2021/06/03 10:46:01;;;;;;;13.13;3.50;;;;;;;;;;4905228;29;20071;-80
2021/06/03 10:48:31;;;;;;;16.38;4.05;;;;;;;;;;4906773;29;20119;-80
2021/06/03 10:51:06;;;;;;;14.18;4.18;;;;;;;;;;4910454;29;20074;-80
2021/06/03 10:53:45;;;;;;;12.15;3.60;;;;;;;;;;4896564;29;20023;-82
2021/06/03 10:56:14;;;;;;;12.63;3.65;;;;;;;;;;4908965;29;20567;-81
2021/06/03 10:59:07;;;;;;;12.75;3.70;;;;;;;;;;4891554;29;20050;-80
2021/06/03 11:01:52;;;;;;;11.57;3.70;;;;;;;;;;4912056;29;20597;-81
2021/06/03 11:04:27;;;;;;;14.30;3.88;;;;;;;;;;4893484;29;20061;-81
2021/06/03 11:07:05;;;;;;;15.23;3.72;;;;;;;;;;4889709;29;20047;-81
2021/06/03 11:09:37;;;;;;;14.18;3.97;;;;;;;;;;4878572;29;21423;-81
2021/06/03 11:12:09;;;;;;;11.32;3.33;;;;;;;;;;4903692;28;21266;-81
2021/06/03 11:14:55;;;;;;;12.15;3.13;;;;;;;;;;4901101;29;20099;-81
2021/06/03 11:17:43;;;;;;;15.45;3.72;;;;;;;;;;4905401;29;20032;-80
2021/06/03 11:23:24;;;;;;;15.80;3.78;;;;;;;;;;4892992;29;20134;-81
2021/06/03 11:25:51;;;;;;;18.23;3.67;;;;;;;;;;4908903;28;20625;-81
2021/06/03 11:28:23;;;;;;;14.10;3.90;;;;;;;;;;4907494;29;20039;-81
2021/06/03 11:30:53;;;;;;;12.20;3.22;;;;;;;;;;4922028;28;20027;-80
2021/06/03 11:33:46;;;;;;;13.38;3.75;;;;;;;;;;4910056;29;20143;-80
2021/06/03 11:36:31;;;;;;;13.00;3.58;;;;;;;;;;4915909;28;20140;-81
2021/06/03 11:38:59;;;;;;;12.70;4.43;;;;;;;;;;4901327;29;20042;-81
2021/06/03 11:41:52;;;;;;;15.35;4.13;;;;;;;;;;4922128;28;20049;-81
2021/06/03 11:44:18;;;;;;;12.88;4.13;;;;;;;;;;4852432;29;20062;-81
2021/06/03 11:47:07;;;;;;;15.23;3.95;;;;;;;;;;4851348;29;20117;-80
2021/06/03 11:49:43;;;;;;;12.00;3.60;;;;;;;;;;4864201;29;20490;-84
2021/06/03 11:52:17;;;;;;;13.20;3.75;;;;;;;;;;4867788;29;20044;-82
2021/06/03 11:54:55;;;;;;;12.55;3.78;;;;;;;;;;4846979;29;20041;-81
2021/06/03 11:57:26;;;;;;;14.50;4.18;;;;;;;;;;4863724;29;20195;-82
2021/06/03 12:00:00;;;;;;;13.20;3.70;;;;;;;;;;4846872;29;20113;-82
2021/06/03 12:02:34;;;;;;;12.35;3.95;;;;;;;;;;4850675;29;20478;-82
2021/06/03 12:05:26;;;;;;;12.23;3.28;;;;;;;;;;4864370;29;20055;-81
2021/06/03 12:07:58;;;;;;;15.48;3.70;;;;;;;;;;4865199;29;20044;-82
2021/06/03 12:10:46;;;;;;;13.45;3.90;;;;;;;;;;4864898;29;20103;-82
2021/06/03 12:13:20;;;;;;;13.13;3.58;;;;;;;;;;4868309;29;20088;-82
2021/06/03 12:15:56;;;;;;;12.80;3.35;;;;;;;;;;4850482;29;20047;-83
2021/06/03 12:18:23;;;;;;;13.93;4.45;;;;;;;;;;4853317;29;20052;-81
2021/06/03 12:20:51;;;;;;;15.50;6.97;;;;;;;;;;4862181;29;20572;-81
2021/06/03 12:23:19;;;;;;;14.35;4.05;;;;;;;;;;4899308;29;20063;-81
2021/06/03 12:25:49;;;;;;;13.75;3.70;;;;;;;;;;4897385;28;20051;-81
2021/06/03 12:28:18;;;;;;;13.13;3.33;;;;;;;;;;4904571;28;20035;-82
2021/06/03 12:30:45;;;;;;;14.80;4.20;;;;;;;;;;4900676;28;20937;-82
2021/06/03 12:33:32;;;;;;;11.07;3.42;;;;;;;;;;4920778;28;20043;-83
2021/06/03 12:36:26;;;;;;;13.82;3.40;;;;;;;;;;4896868;28;20024;-83
2021/06/03 12:38:58;;;;;;;12.38;3.28;;;;;;;;;;4915615;28;20627;-83
2021/06/03 12:41:44;;;;;;;12.32;3.47;;;;;;;;;;4926999;28;20027;-82
2021/06/03 12:44:17;;;;;;;13.63;3.17;;;;;;;;;;4923571;28;20558;-82
2021/06/03 12:46:47;;;;;;;16.90;4.00;;;;;;;;;;4939997;28;20046;-81
2021/06/03 12:49:20;;;;;;;14.30;3.47;;;;;;;;;;4927461;28;20032;-84
2021/06/03 12:51:51;;;;;;;;;;;;;;;;;;4922402;28;20133;-83
2021/06/03 12:54:27;;;;;;;13.45;4.40;;;;;;;;;;4941119;28;19925;-82
2021/06/03 12:57:00;;;;;;;11.95;3.10;;;;;;;;;;4927264;28;20065;-82
2021/06/03 12:59:31;;;;;;;14.75;3.45;;;;;;;;;;4932722;28;20374;-81
2021/06/03 13:02:10;;;;;;;13.68;3.03;;;;;;;;;;4925609;28;20718;-83
2021/06/03 13:04:44;;;;;;;11.05;3.47;;;;;;;;;;4914375;28;20054;-82
2021/06/03 13:07:13;;;;;;;;;;;;;;;;;;4934992;28;20169;-81
2021/06/03 13:10:04;;;;;;;10.32;2.83;;;;;;;;;;4913895;28;19945;-83
2021/06/03 13:12:32;;;;;;;10.30;2.88;;;;;;;;;;4930954;28;20504;-81
2021/06/03 13:15:02;;;;;;;12.35;3.33;;;;;;;;;;4908817;28;20475;-83
2021/06/03 13:17:36;;;;;;;13.90;3.08;;;;;;;;;;4913319;28;20066;-82
2021/06/03 13:20:15;;;;;;;11.57;3.23;;;;;;;;;;4896676;28;20039;-81
2021/06/03 13:23:03;;;;;;;12.98;3.28;;;;;;;;;;4899490;28;20122;-82
2021/06/03 13:25:32;;;;;;;12.45;3.28;;;;;;;;;;4929879;28;20788;-82
2021/06/03 13:30:55;;;;;;;10.60;3.00;;;;;;;;;;4925648;28;20058;-82
2021/06/03 13:33:31;;;;;;;11.48;2.70;;;;;;;;;;4931541;28;20248;-83
2021/06/03 13:36:06;;;;;;;12.57;3.08;;;;;;;;;;4894629;28;20049;-84
2021/06/03 13:38:34;;;;;;;11.00;2.85;;;;;;;;;;4928633;28;20089;-84
2021/06/03 13:41:07;;;;;;;11.20;3.15;;;;;;;;;;4908321;28;20102;-82
2021/06/03 13:43:35;;;;;;;11.93;3.25;;;;;;;;;;4916404;28;20130;-82
2021/06/03 13:46:09;;;;;;;9.45;3.22;;;;;;;;;;4917069;28;20055;-83
2021/06/03 13:48:36;;;;;;;;;;;;;;;;;;4925366;28;20097;-83
2021/06/03 13:51:09;;;;;;;9.77;2.90;;;;;;;;;;4951113;28;19918;-80
2021/06/03 13:53:40;;;;;;;9.25;2.72;;;;;;;;;;4924757;28;20794;-80
2021/06/03 13:56:09;;;;;;;10.05;2.80;;;;;;;;;;4923822;28;20085;-80
2021/06/03 13:58:58;;;;;;;11.00;2.95;;;;;;;;;;4942903;28;20561;-81
2021/06/03 14:01:35;;;;;;;10.73;2.85;;;;;;;;;;4942893;28;20039;-81
2021/06/03 14:04:06;;;;;;;13.35;3.33;;;;;;;;;;4913960;28;20194;-81
2021/06/03 14:06:57;;;;;;;11.40;2.90;;;;;;;;;;4922500;28;20046;-81
2021/06/03 14:09:28;;;;;;;8.75;2.25;;;;;;;;;;4942591;28;20035;-81
2021/06/03 14:12:31;;;;;;;11.88;2.83;;;;;;;;;;4925770;28;20115;-81
2021/06/03 14:15:26;;;;;;;13.35;2.97;;;;;;;;;;4942846;28;20060;-80
2021/06/03 14:18:04;;;;;;;10.82;3.05;;;;;;;;;;4943233;28;20027;-83
2021/06/03 14:20:31;;;;;;;11.38;2.83;;;;;;;;;;4943748;28;20553;-81
2021/06/03 14:22:59;;;;;;;11.05;3.00;;;;;;;;;;4922696;28;20550;-81
2021/06/03 14:25:46;;;;;;;10.88;3.00;;;;;;;;;;4948469;28;20050;-77
2021/06/03 14:28:19;;;;;;;10.68;2.58;;;;;;;;;;4945504;28;20042;-79
2021/06/03 14:30:52;;;;;;;11.75;3.03;;;;;;;;;;4922300;28;20030;-80
2021/06/03 14:33:22;;;;;;;13.02;2.80;;;;;;;;;;4944525;28;20031;-80
2021/06/03 14:35:52;;;;;;;12.23;3.10;;;;;;;;;;4940411;28;20026;-77
2021/06/03 14:38:19;;;;;;;9.32;2.60;;;;;;;;;;4937767;28;20419;-77
2021/06/03 14:40:59;;;;;;;9.57;2.53;;;;;;;;;;4920013;28;20082;-78
2021/06/03 14:43:28;;;;;;;11.75;2.28;;;;;;;;;;4913463;28;20043;-79
2021/06/03 14:46:13;;;;;;;8.85;2.65;;;;;;;;;;4928676;28;20071;-78
2021/06/03 14:49:05;;;;;;;10.85;2.60;;;;;;;;;;4925127;28;20043;-77
2021/06/03 14:51:33;;;;;;;9.18;2.70;;;;;;;;;;4930055;28;20734;-79
2021/06/03 14:54:00;;;;;;;9.10;2.47;;;;;;;;;;4937503;28;20757;-79
2021/06/03 14:56:27;;;;;;;10.75;2.75;;;;;;;;;;4924466;28;20138;-79
2021/06/03 14:58:54;;;;;;;9.82;2.80;;;;;;;;;;4925366;28;20034;-78
2021/06/03 15:01:23;;;;;;;11.20;2.45;;;;;;;;;;4924589;28;20242;-78
2021/06/03 15:03:50;;;;;;;11.18;2.88;;;;;;;;;;4895798;28;20044;-78
2021/06/03 15:06:18;;;;;;;9.27;2.70;;;;;;;;;;4888160;29;20544;-79
2021/06/03 15:08:46;;;;;;;15.00;2.63;;;;;;;;;;4896125;29;20036;-78
2021/06/03 15:11:13;;;;;;;9.20;2.53;;;;;;;;;;4889713;29;20039;-78